sensor_id;sensor_type;location;lat;lon;timestamp;pressure;altitude;pressure_sealevel;temperature;humidity
39949;BME280;29070;48.102;-1.652;2023-02-28T00:03:08;102520.06;;;1.67;55.57
39949;BME280;29070;48.102;-1.652;2023-02-28T00:08:08;102510.81;;;1.63;54.97
39949;BME280;29070;48.102;-1.652;2023-02-28T00:13:09;102511.00;;;1.60;55.30
39949;BME280;29070;48.102;-1.652;2023-02-28T00:18:09;102507.84;;;1.55;55.38
39949;BME280;29070;48.102;-1.652;2023-02-28T00:23:10;102516.50;;;1.53;55.86
39949;BME280;29070;48.102;-1.652;2023-02-28T00:28:10;102515.03;;;1.49;56.14
39949;BME280;29070;48.102;-1.652;2023-02-28T00:33:10;102522.06;;;1.47;56.22
39949;BME280;29070;48.102;-1.652;2023-02-28T00:38:11;102520.59;;;1.43;56.27
39949;BME280;29070;48.102;-1.652;2023-02-28T00:43:11;102523.34;;;1.40;56.43
39949;BME280;29070;48.102;-1.652;2023-02-28T00:48:11;102521.09;;;1.34;56.56
39949;BME280;29070;48.102;-1.652;2023-02-28T00:53:12;102522.94;;;1.32;56.24
39949;BME280;29070;48.102;-1.652;2023-02-28T00:58:12;102524.88;;;1.28;56.82
39949;BME280;29070;48.102;-1.652;2023-02-28T01:03:12;102528.41;;;1.27;56.68
39949;BME280;29070;48.102;-1.652;2023-02-28T01:08:13;102518.16;;;1.26;56.90
39949;BME280;29070;48.102;-1.652;2023-02-28T01:13:14;102519.91;;;1.25;56.76
39949;BME280;29070;48.102;-1.652;2023-02-28T01:18:15;102513.16;;;1.23;56.92
39949;BME280;29070;48.102;-1.652;2023-02-28T01:23:15;102519.34;;;1.20;56.95
39949;BME280;29070;48.102;-1.652;2023-02-28T01:28:16;102520.91;;;1.23;57.19
39949;BME280;29070;48.102;-1.652;2023-02-28T01:33:16;102525.50;;;1.18;57.51
39949;BME280;29070;48.102;-1.652;2023-02-28T01:38:16;102524.84;;;1.14;57.72
39949;BME280;29070;48.102;-1.652;2023-02-28T01:48:29;102535.47;;;1.09;57.58
39949;BME280;29070;48.102;-1.652;2023-02-28T01:53:39;102537.50;;;1.04;58.56
39949;BME280;29070;48.102;-1.652;2023-02-28T01:58:41;102537.75;;;1.00;58.25
39949;BME280;29070;48.102;-1.652;2023-02-28T02:03:42;102538.75;;;0.97;57.65
39949;BME280;29070;48.102;-1.652;2023-02-28T02:08:42;102538.94;;;0.94;57.36
39949;BME280;29070;48.102;-1.652;2023-02-28T02:14:09;102541.75;;;0.89;59.63
39949;BME280;29070;48.102;-1.652;2023-02-28T02:40:10;102542.13;;;0.67;58.98
39949;BME280;29070;48.102;-1.652;2023-02-28T02:45:42;102535.47;;;0.63;60.21
39949;BME280;29070;48.102;-1.652;2023-02-28T02:50:57;102540.81;;;0.60;59.51
39949;BME280;29070;48.102;-1.652;2023-02-28T02:56:00;102532.31;;;0.58;58.63
39949;BME280;29070;48.102;-1.652;2023-02-28T03:01:03;102535.91;;;0.55;59.22
39949;BME280;29070;48.102;-1.652;2023-02-28T03:06:04;102535.22;;;0.52;58.79
39949;BME280;29070;48.102;-1.652;2023-02-28T03:11:12;102538.00;;;0.49;58.99
39949;BME280;29070;48.102;-1.652;2023-02-28T03:22:14;102539.25;;;0.42;60.58
39949;BME280;29070;48.102;-1.652;2023-02-28T03:27:31;102546.13;;;0.41;60.22
39949;BME280;29070;48.102;-1.652;2023-02-28T03:32:38;102539.31;;;0.40;59.40
39949;BME280;29070;48.102;-1.652;2023-02-28T03:37:43;102543.00;;;0.36;59.88
39949;BME280;29070;48.102;-1.652;2023-02-28T03:42:49;102538.81;;;0.33;59.34
39949;BME280;29070;48.102;-1.652;2023-02-28T03:48:08;102548.47;;;0.30;60.74
39949;BME280;29070;48.102;-1.652;2023-02-28T03:53:30;102541.16;;;0.22;60.91
39949;BME280;29070;48.102;-1.652;2023-02-28T03:59:02;102537.97;;;0.17;60.65
39949;BME280;29070;48.102;-1.652;2023-02-28T04:04:05;102538.31;;;0.11;59.73
39949;BME280;29070;48.102;-1.652;2023-02-28T04:09:08;102536.97;;;0.04;60.31
39949;BME280;29070;48.102;-1.652;2023-02-28T04:14:10;102537.94;;;0.01;60.24
39949;BME280;29070;48.102;-1.652;2023-02-28T04:19:12;102535.59;;;-0.04;60.28
39949;BME280;29070;48.102;-1.652;2023-02-28T04:24:17;102542.78;;;-0.09;60.39
39949;BME280;29070;48.102;-1.652;2023-02-28T04:29:23;102551.75;;;-0.16;59.86
39949;BME280;29070;48.102;-1.652;2023-02-28T04:34:30;102554.88;;;-0.27;60.85
39949;BME280;29070;48.102;-1.652;2023-02-28T04:39:35;102553.28;;;-0.29;60.99
39949;BME280;29070;48.102;-1.652;2023-02-28T04:44:36;102555.19;;;-0.33;60.75
39949;BME280;29070;48.102;-1.652;2023-02-28T04:49:36;102565.56;;;-0.34;60.66
39949;BME280;29070;48.102;-1.652;2023-02-28T04:54:36;102565.63;;;-0.36;60.80
39949;BME280;29070;48.102;-1.652;2023-02-28T04:59:39;102572.63;;;-0.38;60.65
39949;BME280;29070;48.102;-1.652;2023-02-28T05:04:39;102570.13;;;-0.40;60.62
39949;BME280;29070;48.102;-1.652;2023-02-28T05:09:39;102575.38;;;-0.41;60.89
39949;BME280;29070;48.102;-1.652;2023-02-28T05:14:40;102584.69;;;-0.39;61.51
39949;BME280;29070;48.102;-1.652;2023-02-28T05:19:40;102588.28;;;-0.41;61.33
39949;BME280;29070;48.102;-1.652;2023-02-28T05:24:40;102592.66;;;-0.43;61.09
39949;BME280;29070;48.102;-1.652;2023-02-28T05:29:42;102599.56;;;-0.44;61.63
39949;BME280;29070;48.102;-1.652;2023-02-28T05:34:43;102597.91;;;-0.45;61.48
39949;BME280;29070;48.102;-1.652;2023-02-28T05:39:43;102599.66;;;-0.45;61.52
39949;BME280;29070;48.102;-1.652;2023-02-28T05:44:44;102603.22;;;-0.48;61.45
39949;BME280;29070;48.102;-1.652;2023-02-28T05:49:44;102619.53;;;-0.47;61.30
39949;BME280;29070;48.102;-1.652;2023-02-28T05:54:46;102624.75;;;-0.49;61.48
39949;BME280;29070;48.102;-1.652;2023-02-28T05:59:46;102626.44;;;-0.48;61.73
39949;BME280;29070;48.102;-1.652;2023-02-28T06:04:47;102636.81;;;-0.49;61.73
39949;BME280;29070;48.102;-1.652;2023-02-28T06:09:47;102633.50;;;-0.51;61.65
39949;BME280;29070;48.102;-1.652;2023-02-28T06:14:47;102631.88;;;-0.54;62.11
39949;BME280;29070;48.102;-1.652;2023-02-28T06:19:48;102629.31;;;-0.54;62.07
39949;BME280;29070;48.102;-1.652;2023-02-28T06:24:48;102629.31;;;-0.54;62.07
39949;BME280;29070;48.102;-1.652;2023-02-28T06:29:53;102623.31;;;-0.54;62.27
39949;BME280;29070;48.102;-1.652;2023-02-28T06:34:53;102625.97;;;-0.56;62.20
39949;BME280;29070;48.102;-1.652;2023-02-28T06:39:54;102627.78;;;-0.58;61.99
39949;BME280;29070;48.102;-1.652;2023-02-28T06:44:56;102624.59;;;-0.63;62.14
39949;BME280;29070;48.102;-1.652;2023-02-28T06:49:56;102630.06;;;-0.69;62.14
39949;BME280;29070;48.102;-1.652;2023-02-28T06:54:58;102634.53;;;-0.73;61.96
39949;BME280;29070;48.102;-1.652;2023-02-28T07:00:05;102634.97;;;-0.82;62.15
39949;BME280;29070;48.102;-1.652;2023-02-28T07:05:08;102643.75;;;-0.86;62.50
39949;BME280;29070;48.102;-1.652;2023-02-28T07:10:09;102650.72;;;-0.88;62.09
39949;BME280;29070;48.102;-1.652;2023-02-28T07:15:10;102656.09;;;-0.93;62.21
39949;BME280;29070;48.102;-1.652;2023-02-28T07:20:11;102662.16;;;-0.94;62.33
39949;BME280;29070;48.102;-1.652;2023-02-28T07:25:12;102669.97;;;-0.96;62.06
39949;BME280;29070;48.102;-1.652;2023-02-28T07:30:12;102669.00;;;-0.93;62.17
39949;BME280;29070;48.102;-1.652;2023-02-28T07:35:13;102675.81;;;-0.92;62.98
39949;BME280;29070;48.102;-1.652;2023-02-28T07:40:15;102684.94;;;-0.85;63.16
39949;BME280;29070;48.102;-1.652;2023-02-28T07:45:15;102701.78;;;-0.78;62.90
39949;BME280;29070;48.102;-1.652;2023-02-28T07:50:17;102700.50;;;-0.69;62.89
39949;BME280;29070;48.102;-1.652;2023-02-28T07:55:17;102706.84;;;-0.57;63.25
39949;BME280;29070;48.102;-1.652;2023-02-28T08:00:18;102699.41;;;-0.46;63.07
39949;BME280;29070;48.102;-1.652;2023-02-28T08:05:18;102705.50;;;-0.29;63.36
39949;BME280;29070;48.102;-1.652;2023-02-28T08:10:19;102712.34;;;-0.11;63.35
39949;BME280;29070;48.102;-1.652;2023-02-28T08:15:21;102710.84;;;0.03;63.22
39949;BME280;29070;48.102;-1.652;2023-02-28T08:20:22;102699.75;;;0.18;63.16
39949;BME280;29070;48.102;-1.652;2023-02-28T08:25:23;102707.44;;;0.35;63.42
39949;BME280;29070;48.102;-1.652;2023-02-28T08:30:23;102718.50;;;0.55;63.24
39949;BME280;29070;48.102;-1.652;2023-02-28T08:35:23;102717.56;;;0.73;63.47
39949;BME280;29070;48.102;-1.652;2023-02-28T08:40:24;102721.75;;;0.92;63.66
39949;BME280;29070;48.102;-1.652;2023-02-28T08:45:24;102720.00;;;1.08;63.16
39949;BME280;29070;48.102;-1.652;2023-02-28T08:50:25;102716.31;;;1.28;63.00
39949;BME280;29070;48.102;-1.652;2023-02-28T08:55:25;102715.03;;;1.51;63.28
39949;BME280;29070;48.102;-1.652;2023-02-28T09:00:26;102712.34;;;1.69;63.31
39949;BME280;29070;48.102;-1.652;2023-02-28T09:05:26;102716.44;;;1.87;63.37
39949;BME280;29070;48.102;-1.652;2023-02-28T09:10:26;102713.72;;;2.05;63.26
39949;BME280;29070;48.102;-1.652;2023-02-28T09:15:27;102716.91;;;2.24;63.39
39949;BME280;29070;48.102;-1.652;2023-02-28T09:20:27;102719.91;;;2.47;63.27
39949;BME280;29070;48.102;-1.652;2023-02-28T09:25:27;102727.09;;;2.71;62.78
39949;BME280;29070;48.102;-1.652;2023-02-28T09:30:28;102727.66;;;2.90;62.70
39949;BME280;29070;48.102;-1.652;2023-02-28T09:35:29;102733.38;;;3.10;62.38
39949;BME280;29070;48.102;-1.652;2023-02-28T09:40:30;102724.94;;;3.33;62.06
39949;BME280;29070;48.102;-1.652;2023-02-28T09:45:36;102721.91;;;3.54;62.03
39949;BME280;29070;48.102;-1.652;2023-02-28T09:50:42;102720.72;;;3.72;61.50
39949;BME280;29070;48.102;-1.652;2023-02-28T09:55:49;102718.59;;;3.92;61.30
39949;BME280;29070;48.102;-1.652;2023-02-28T10:01:00;102726.19;;;4.20;61.04
39949;BME280;29070;48.102;-1.652;2023-02-28T10:06:26;102730.56;;;4.46;58.56
39949;BME280;29070;48.102;-1.652;2023-02-28T10:11:29;102724.41;;;4.72;60.14
39949;BME280;29070;48.102;-1.652;2023-02-28T10:16:48;102721.56;;;4.88;57.92
39949;BME280;29070;48.102;-1.652;2023-02-28T10:21:59;102725.47;;;5.07;58.08
39949;BME280;29070;48.102;-1.652;2023-02-28T10:32:23;102706.47;;;5.42;58.43
39949;BME280;29070;48.102;-1.652;2023-02-28T10:37:24;102705.06;;;5.49;58.08
39949;BME280;29070;48.102;-1.652;2023-02-28T10:42:27;102714.16;;;5.67;58.14
39949;BME280;29070;48.102;-1.652;2023-02-28T10:47:27;102696.44;;;5.95;57.64
39949;BME280;29070;48.102;-1.652;2023-02-28T10:52:39;102688.44;;;6.09;55.47
39949;BME280;29070;48.102;-1.652;2023-02-28T10:57:39;102687.06;;;6.28;57.02
39949;BME280;29070;48.102;-1.652;2023-02-28T11:02:40;102690.38;;;6.41;56.38
39949;BME280;29070;48.102;-1.652;2023-02-28T11:07:51;102685.75;;;6.45;53.89
39949;BME280;29070;48.102;-1.652;2023-02-28T11:12:57;102679.69;;;6.56;54.33
39949;BME280;29070;48.102;-1.652;2023-02-28T11:23:14;102661.28;;;6.80;53.51
39949;BME280;29070;48.102;-1.652;2023-02-28T11:28:39;102644.50;;;6.94;51.02
39949;BME280;29070;48.102;-1.652;2023-02-28T11:33:41;102652.03;;;7.19;53.29
39949;BME280;29070;48.102;-1.652;2023-02-28T11:38:42;102634.03;;;7.37;52.86
39949;BME280;29070;48.102;-1.652;2023-02-28T11:44:05;102624.59;;;7.46;50.99
39949;BME280;29070;48.102;-1.652;2023-02-28T11:49:35;102598.41;;;7.57;49.80
39949;BME280;29070;48.102;-1.652;2023-02-28T11:54:46;102614.00;;;7.69;51.20
39949;BME280;29070;48.102;-1.652;2023-02-28T11:59:57;102595.81;;;7.88;49.78
39949;BME280;29070;48.102;-1.652;2023-02-28T12:05:34;102584.28;;;7.91;46.12
39949;BME280;29070;48.102;-1.652;2023-02-28T12:26:57;102532.56;;;8.74;47.04
39949;BME280;29070;48.102;-1.652;2023-02-28T12:32:06;102545.94;;;8.81;48.42
39949;BME280;29070;48.102;-1.652;2023-02-28T12:37:21;102521.94;;;8.95;47.96
39949;BME280;29070;48.102;-1.652;2023-02-28T12:42:32;102512.53;;;9.12;45.98
39949;BME280;29070;48.102;-1.652;2023-02-28T12:47:33;102519.06;;;9.45;48.72
39949;BME280;29070;48.102;-1.652;2023-02-28T12:52:58;102505.78;;;9.57;46.06
39949;BME280;29070;48.102;-1.652;2023-02-28T13:03:38;102483.28;;;9.91;46.64
39949;BME280;29070;48.102;-1.652;2023-02-28T13:09:03;102468.97;;;10.04;46.04
39949;BME280;29070;48.102;-1.652;2023-02-28T13:14:15;102461.00;;;9.96;46.00
39949;BME280;29070;48.102;-1.652;2023-02-28T13:19:18;102459.59;;;10.19;46.73
39949;BME280;29070;48.102;-1.652;2023-02-28T13:24:48;102443.22;;;10.35;44.59
39949;BME280;29070;48.102;-1.652;2023-02-28T13:29:50;102450.34;;;10.61;46.40
39949;BME280;29070;48.102;-1.652;2023-02-28T13:35:12;102449.09;;;10.91;45.73
39949;BME280;29070;48.102;-1.652;2023-02-28T14:06:30;102441.09;;;9.57;44.80
39949;BME280;29070;48.102;-1.652;2023-02-28T14:11:37;102440.50;;;9.35;44.83
39949;BME280;29070;48.102;-1.652;2023-02-28T14:16:45;102443.31;;;9.14;45.57
39949;BME280;29070;48.102;-1.652;2023-02-28T14:38:19;102452.75;;;8.88;46.56
39949;BME280;29070;48.102;-1.652;2023-02-28T14:43:26;102439.28;;;8.63;46.90
39949;BME280;29070;48.102;-1.652;2023-02-28T14:48:27;102443.44;;;8.46;47.16
39949;BME280;29070;48.102;-1.652;2023-02-28T14:53:30;102429.63;;;8.34;47.80
39949;BME280;29070;48.102;-1.652;2023-02-28T14:58:35;102425.50;;;8.22;47.81
39949;BME280;29070;48.102;-1.652;2023-02-28T15:03:37;102421.38;;;8.29;48.42
39949;BME280;29070;48.102;-1.652;2023-02-28T15:08:38;102416.56;;;8.25;48.29
39949;BME280;29070;48.102;-1.652;2023-02-28T15:13:41;102417.22;;;8.17;49.04
39949;BME280;29070;48.102;-1.652;2023-02-28T15:18:47;102419.97;;;8.15;48.80
39949;BME280;29070;48.102;-1.652;2023-02-28T15:23:54;102413.94;;;8.05;49.88
39949;BME280;29070;48.102;-1.652;2023-02-28T15:29:19;102421.91;;;8.04;50.16
39949;BME280;29070;48.102;-1.652;2023-02-28T15:34:42;102432.63;;;7.91;52.34
39949;BME280;29070;48.102;-1.652;2023-02-28T15:39:43;102424.63;;;7.73;50.20
39949;BME280;29070;48.102;-1.652;2023-02-28T15:44:44;102431.69;;;7.51;50.74
39949;BME280;29070;48.102;-1.652;2023-02-28T15:49:53;102424.47;;;7.34;51.59
39949;BME280;29070;48.102;-1.652;2023-02-28T15:54:54;102429.25;;;7.29;52.19
39949;BME280;29070;48.102;-1.652;2023-02-28T16:00:02;102420.63;;;7.07;53.24
39949;BME280;29070;48.102;-1.652;2023-02-28T16:10:10;102419.84;;;6.85;53.43
39949;BME280;29070;48.102;-1.652;2023-02-28T16:20:25;102408.06;;;6.70;54.25
39949;BME280;29070;48.102;-1.652;2023-02-28T16:25:44;102410.09;;;6.66;56.00
39949;BME280;29070;48.102;-1.652;2023-02-28T16:30:46;102411.31;;;6.62;54.45
39949;BME280;29070;48.102;-1.652;2023-02-28T16:35:47;102417.09;;;6.66;54.63
39949;BME280;29070;48.102;-1.652;2023-02-28T16:40:49;102405.97;;;6.64;54.80
39949;BME280;29070;48.102;-1.652;2023-02-28T16:45:55;102406.97;;;6.52;55.51
39949;BME280;29070;48.102;-1.652;2023-02-28T16:50:56;102392.03;;;6.54;55.40
39949;BME280;29070;48.102;-1.652;2023-02-28T16:55:57;102394.63;;;6.54;55.95
39949;BME280;29070;48.102;-1.652;2023-02-28T17:00:57;102392.38;;;6.49;55.94
39949;BME280;29070;48.102;-1.652;2023-02-28T17:05:58;102400.38;;;6.47;56.58
39949;BME280;29070;48.102;-1.652;2023-02-28T17:10:59;102385.72;;;6.35;56.81
39949;BME280;29070;48.102;-1.652;2023-02-28T17:16:01;102394.72;;;6.31;56.94
39949;BME280;29070;48.102;-1.652;2023-02-28T17:21:02;102393.91;;;6.30;57.02
39949;BME280;29070;48.102;-1.652;2023-02-28T17:26:02;102394.53;;;6.23;57.67
39949;BME280;29070;48.102;-1.652;2023-02-28T17:31:05;102386.72;;;6.23;57.76
39949;BME280;29070;48.102;-1.652;2023-02-28T17:36:06;102383.91;;;6.15;58.00
39949;BME280;29070;48.102;-1.652;2023-02-28T17:41:10;102385.09;;;6.10;58.29
39949;BME280;29070;48.102;-1.652;2023-02-28T17:46:18;102378.22;;;6.09;59.11
39949;BME280;29070;48.102;-1.652;2023-02-28T17:51:23;102384.66;;;6.05;58.92
39949;BME280;29070;48.102;-1.652;2023-02-28T17:56:25;102380.53;;;6.03;59.25
39949;BME280;29070;48.102;-1.652;2023-02-28T18:01:26;102387.81;;;6.09;59.09
39949;BME280;29070;48.102;-1.652;2023-02-28T18:06:40;102361.88;;;6.07;60.69
39949;BME280;29070;48.102;-1.652;2023-02-28T18:11:51;102358.56;;;6.05;59.58
39949;BME280;29070;48.102;-1.652;2023-02-28T18:16:53;102347.69;;;6.00;60.15
39949;BME280;29070;48.102;-1.652;2023-02-28T18:21:54;102334.91;;;5.97;60.36
39949;BME280;29070;48.102;-1.652;2023-02-28T18:26:55;102330.16;;;5.91;60.69
39949;BME280;29070;48.102;-1.652;2023-02-28T18:31:55;102336.78;;;5.95;60.83
39949;BME280;29070;48.102;-1.652;2023-02-28T18:36:56;102328.06;;;5.96;61.43
39949;BME280;29070;48.102;-1.652;2023-02-28T18:41:57;102334.78;;;5.99;61.33
39949;BME280;29070;48.102;-1.652;2023-02-28T18:46:57;102339.06;;;6.00;61.70
39949;BME280;29070;48.102;-1.652;2023-02-28T18:51:58;102341.53;;;6.01;61.43
39949;BME280;29070;48.102;-1.652;2023-02-28T18:56:58;102357.31;;;5.88;61.82
39949;BME280;29070;48.102;-1.652;2023-02-28T19:01:58;102355.84;;;5.52;61.47
39949;BME280;29070;48.102;-1.652;2023-02-28T19:06:59;102379.53;;;5.15;61.48
39949;BME280;29070;48.102;-1.652;2023-02-28T19:11:59;102361.22;;;4.94;61.39
39949;BME280;29070;48.102;-1.652;2023-02-28T19:17:00;102356.78;;;4.72;61.58
39949;BME280;29070;48.102;-1.652;2023-02-28T19:22:00;102359.00;;;4.54;61.87
39949;BME280;29070;48.102;-1.652;2023-02-28T19:27:00;102361.84;;;4.51;62.03
39949;BME280;29070;48.102;-1.652;2023-02-28T19:32:01;102365.09;;;4.42;62.01
39949;BME280;29070;48.102;-1.652;2023-02-28T19:37:03;102361.66;;;4.30;62.16
39949;BME280;29070;48.102;-1.652;2023-02-28T19:42:03;102364.19;;;4.18;62.42
39949;BME280;29070;48.102;-1.652;2023-02-28T19:47:04;102352.97;;;4.18;62.84
39949;BME280;29070;48.102;-1.652;2023-02-28T19:52:05;102341.06;;;4.15;63.22
39949;BME280;29070;48.102;-1.652;2023-02-28T19:57:05;102339.50;;;4.13;63.93
39949;BME280;29070;48.102;-1.652;2023-02-28T20:02:12;102339.59;;;4.11;64.24
39949;BME280;29070;48.102;-1.652;2023-02-28T20:07:14;102332.88;;;4.09;64.08
39949;BME280;29070;48.102;-1.652;2023-02-28T20:12:14;102330.72;;;4.03;64.46
39949;BME280;29070;48.102;-1.652;2023-02-28T20:17:17;102321.59;;;3.97;64.46
39949;BME280;29070;48.102;-1.652;2023-02-28T20:22:17;102316.41;;;3.97;64.48
39949;BME280;29070;48.102;-1.652;2023-02-28T20:27:17;102319.25;;;3.94;64.82
39949;BME280;29070;48.102;-1.652;2023-02-28T20:32:18;102319.66;;;3.88;64.67
39949;BME280;29070;48.102;-1.652;2023-02-28T20:37:19;102325.53;;;3.78;64.64
39949;BME280;29070;48.102;-1.652;2023-02-28T20:42:19;102330.88;;;3.64;64.69
39949;BME280;29070;48.102;-1.652;2023-02-28T20:47:19;102325.75;;;3.51;64.70
39949;BME280;29070;48.102;-1.652;2023-02-28T20:52:20;102336.97;;;3.39;64.68
39949;BME280;29070;48.102;-1.652;2023-02-28T20:57:20;102350.81;;;3.27;65.15
39949;BME280;29070;48.102;-1.652;2023-02-28T21:02:20;102366.41;;;3.14;65.00
39949;BME280;29070;48.102;-1.652;2023-02-28T21:07:21;102365.16;;;3.07;65.45
39949;BME280;29070;48.102;-1.652;2023-02-28T21:12:21;102375.56;;;2.94;65.25
39949;BME280;29070;48.102;-1.652;2023-02-28T21:17:22;102380.50;;;2.84;65.95
39949;BME280;29070;48.102;-1.652;2023-02-28T21:22:22;102391.31;;;2.78;65.75
39949;BME280;29070;48.102;-1.652;2023-02-28T21:27:22;102409.13;;;2.70;66.06
39949;BME280;29070;48.102;-1.652;2023-02-28T21:32:23;102405.28;;;2.62;66.10
39949;BME280;29070;48.102;-1.652;2023-02-28T21:37:23;102395.22;;;2.58;66.41
39949;BME280;29070;48.102;-1.652;2023-02-28T21:42:24;102406.16;;;2.48;66.14
39949;BME280;29070;48.102;-1.652;2023-02-28T21:47:24;102417.38;;;2.49;66.71
39949;BME280;29070;48.102;-1.652;2023-02-28T21:52:24;102410.72;;;2.45;66.67
39949;BME280;29070;48.102;-1.652;2023-02-28T21:57:25;102422.41;;;2.38;66.52
39949;BME280;29070;48.102;-1.652;2023-02-28T22:02:26;102418.19;;;2.37;66.68
39949;BME280;29070;48.102;-1.652;2023-02-28T22:07:26;102410.41;;;2.37;67.06
39949;BME280;29070;48.102;-1.652;2023-02-28T22:12:29;102415.69;;;2.35;67.16
39949;BME280;29070;48.102;-1.652;2023-02-28T22:17:29;102414.31;;;2.29;66.98
39949;BME280;29070;48.102;-1.652;2023-02-28T22:22:29;102429.97;;;2.28;67.41
39949;BME280;29070;48.102;-1.652;2023-02-28T22:27:30;102435.31;;;2.25;67.25
39949;BME280;29070;48.102;-1.652;2023-02-28T22:32:30;102409.31;;;2.26;67.72
39949;BME280;29070;48.102;-1.652;2023-02-28T22:37:31;102418.88;;;2.26;67.53
39949;BME280;29070;48.102;-1.652;2023-02-28T22:42:32;102429.81;;;2.17;67.37
39949;BME280;29070;48.102;-1.652;2023-02-28T22:47:33;102426.19;;;2.19;67.62
39949;BME280;29070;48.102;-1.652;2023-02-28T22:52:33;102442.03;;;2.15;67.93
39949;BME280;29070;48.102;-1.652;2023-02-28T22:57:34;102438.91;;;2.09;67.64
39949;BME280;29070;48.102;-1.652;2023-02-28T23:02:35;102437.50;;;2.04;67.69
39949;BME280;29070;48.102;-1.652;2023-02-28T23:07:35;102436.88;;;2.00;68.01
39949;BME280;29070;48.102;-1.652;2023-02-28T23:12:36;102447.63;;;1.94;67.65
39949;BME280;29070;48.102;-1.652;2023-02-28T23:17:36;102459.84;;;1.92;68.00
39949;BME280;29070;48.102;-1.652;2023-02-28T23:22:36;102459.28;;;1.87;67.86
39949;BME280;29070;48.102;-1.652;2023-02-28T23:27:37;102457.72;;;1.84;68.22
39949;BME280;29070;48.102;-1.652;2023-02-28T23:32:39;102465.69;;;1.81;67.88
39949;BME280;29070;48.102;-1.652;2023-02-28T23:37:39;102474.56;;;1.77;67.94
39949;BME280;29070;48.102;-1.652;2023-02-28T23:42:40;102478.56;;;1.68;67.82
39949;BME280;29070;48.102;-1.652;2023-02-28T23:47:40;102458.84;;;1.66;68.27
39949;BME280;29070;48.102;-1.652;2023-02-28T23:52:40;102458.50;;;1.58;68.31
39949;BME280;29070;48.102;-1.652;2023-02-28T23:57:41;102450.81;;;1.56;68.31
